Terminal Aerodrome Forecast
Issued by NWS Goodland, KS

Home | Current Version | Previous Version | Text Only | Print | Product List | Glossary On
Versions: 1 2 3 4 5 6 7 8 9 10 11 12 13 14 15 16 17 18
187
FTUS43 KGLD 240520
TAFGLD
TAF
KGLD 240520Z 2406/2506 33015KT P6SM OVC200
     FM240800 02010KT P6SM OVC200
     FM241300 05008KT P6SM BKN150
     FM241500 06013G19KT P6SM SCT200
     FM242200 09012G17KT P6SM SCT200
     FM250300 09008KT P6SM BKN200=

USA.gov is the U.S. government's official web portal to all federal, state and local government web resources and services.